Terminal Aerodrome Forecast
Issued by NWS

Home | Current Version | Previous Version | Text Only | Print | Product List | Glossary On
Versions: 1 2 3 4 5 6 7 8 9 10 11 12 13 14
042
FTUS43 KLSX 041120
TAFCPS
TAF
KCPS 041120Z 0412/0512 30007KT P6SM SCT035
     FM042000 26007KT P6SM FEW250
     FM050000 19004KT P6SM FEW250=

USA.gov is the U.S. government's official web portal to all federal, state and local government web resources and services.